createdAt,value
2022-12-05T00:01:00.244Z,24.95
2022-12-05T00:03:26.629Z,24.45
2022-12-05T00:05:52.978Z,29.83
2022-12-05T00:08:19.422Z,27.73
2022-12-05T00:10:46.552Z,24.42
2022-12-05T00:13:12.982Z,23.65
2022-12-05T00:15:40.856Z,25.40
2022-12-05T00:18:07.587Z,23.67
2022-12-05T00:20:34.291Z,23.55
2022-12-05T00:23:00.922Z,24.10
2022-12-05T00:25:27.501Z,22.70
2022-12-05T00:27:53.867Z,22.67
2022-12-05T00:30:20.225Z,23.45
2022-12-05T00:32:46.628Z,23.45
2022-12-05T00:35:12.989Z,25.13
2022-12-05T00:37:39.545Z,25.77
2022-12-05T00:40:06.622Z,24.75
2022-12-05T00:42:33.025Z,23.45
2022-12-05T00:44:59.478Z,23.88
2022-12-05T00:47:25.837Z,26.23
2022-12-05T00:49:52.190Z,23.92
2022-12-05T00:52:18.549Z,24.33
2022-12-05T00:54:44.972Z,25.52
2022-12-05T00:57:11.332Z,24.67
2022-12-05T00:59:37.768Z,23.63
2022-12-05T01:02:04.276Z,23.65
2022-12-05T01:04:30.706Z,23.70
2022-12-05T01:06:58.753Z,23.33
2022-12-05T01:09:26.054Z,23.80
2022-12-05T01:11:52.578Z,21.90
2022-12-05T01:14:23.284Z,24.25
2022-12-05T01:16:51.896Z,24.17
2022-12-05T01:19:27.016Z,23.20
2022-12-05T01:21:54.095Z,25.88
2022-12-05T01:24:22.059Z,26.20
2022-12-05T01:26:49.164Z,24.65
2022-12-05T01:29:18.428Z,25.40
2022-12-05T01:31:45.591Z,25.65
2022-12-05T01:34:13.941Z,25.10
2022-12-05T01:36:41.338Z,25.23
2022-12-05T01:39:08.940Z,24.15
2022-12-05T01:41:40.950Z,24.48
2022-12-05T01:44:27.286Z,25.17
2022-12-05T01:46:54.539Z,29.67
2022-12-05T01:49:26.508Z,25.67
2022-12-05T01:51:55.965Z,24.73
2022-12-05T01:54:23.594Z,33.85
2022-12-05T01:57:05.717Z,27.60
2022-12-05T02:02:01.382Z,24.92
2022-12-05T02:04:27.895Z,25.90
2022-12-05T02:06:54.829Z,24.75
2022-12-05T02:09:23.117Z,26.35
2022-12-05T02:11:59.783Z,25.52
2022-12-05T02:14:35.301Z,25.25
2022-12-05T02:17:12.944Z,27.17
2022-12-05T02:20:10.007Z,25.92
2022-12-05T02:22:58.595Z,26.45
2022-12-05T02:25:40.618Z,23.83
2022-12-05T02:28:28.755Z,24.08
2022-12-05T02:31:16.413Z,25.83
2022-12-05T02:33:49.273Z,23.20
2022-12-05T02:36:44.374Z,23.65
2022-12-05T02:39:39.336Z,24.98
2022-12-05T02:42:13.991Z,24.17
2022-12-05T02:44:56.874Z,23.85
2022-12-05T02:47:27.210Z,21.63
2022-12-05T02:49:55.299Z,24.67
2022-12-05T02:52:24.804Z,22.02
2022-12-05T02:54:54.604Z,23.83
2022-12-05T02:57:22.212Z,23.90
2022-12-05T02:59:48.576Z,21.45
2022-12-05T03:02:27.439Z,20.77
2022-12-05T03:04:58.360Z,21.88
2022-12-05T03:07:27.717Z,19.70
2022-12-05T03:10:02.555Z,22.63
2022-12-05T03:12:32.267Z,21.58
2022-12-05T03:17:34.395Z,19.27
2022-12-05T03:20:11.461Z,20.88
2022-12-05T03:22:43.055Z,20.95
2022-12-05T03:25:10.744Z,22.08
2022-12-05T03:28:02.866Z,22.05
2022-12-05T03:30:30.736Z,20.73
2022-12-05T03:33:14.017Z,20.65
2022-12-05T03:36:05.898Z,22.45
2022-12-05T03:38:43.246Z,19.33
2022-12-05T03:41:14.488Z,21.75
2022-12-05T03:43:53.254Z,21.58
2022-12-05T03:46:37.712Z,20.67
2022-12-05T03:49:22.822Z,20.92
2022-12-05T03:52:09.597Z,21.13
2022-12-05T03:54:42.233Z,20.67
2022-12-05T03:57:15.540Z,19.75
2022-12-05T03:59:50.043Z,20.45
2022-12-05T04:02:28.386Z,19.48
2022-12-05T04:05:01.663Z,18.17
2022-12-05T04:07:32.014Z,19.95
2022-12-05T04:10:03.411Z,20.00
2022-12-05T04:12:33.479Z,20.20
2022-12-05T04:15:05.917Z,18.52
2022-12-05T04:17:53.771Z,18.30
2022-12-05T04:20:50.951Z,18.27
2022-12-05T04:23:17.799Z,18.73
2022-12-05T04:26:14.525Z,19.73
2022-12-05T04:29:08.166Z,17.73
2022-12-05T04:31:42.458Z,20.80
2022-12-05T04:34:13.722Z,19.05
2022-12-05T04:36:51.458Z,17.38
2022-12-05T04:39:30.402Z,19.33
2022-12-05T04:42:04.186Z,19.73
2022-12-05T04:44:35.096Z,17.45
2022-12-05T04:47:05.244Z,18.55
2022-12-05T04:49:35.743Z,19.13
2022-12-05T04:52:08.913Z,19.42
2022-12-05T04:54:41.806Z,19.13
2022-12-05T04:57:15.669Z,16.70
2022-12-05T04:59:42.131Z,19.50
2022-12-05T05:02:10.596Z,17.35
2022-12-05T05:04:42.258Z,19.40
2022-12-05T05:07:10.630Z,19.95
2022-12-05T05:09:37.868Z,19.08
2022-12-05T05:12:04.928Z,16.80
2022-12-05T05:14:31.441Z,19.08
2022-12-05T05:16:58.273Z,19.83
2022-12-05T05:19:24.935Z,18.05
2022-12-05T05:21:52.197Z,18.77
2022-12-05T05:24:19.172Z,17.52
2022-12-05T05:26:46.463Z,18.55
2022-12-05T05:29:13.741Z,22.45
2022-12-05T05:31:41.573Z,19.13
2022-12-05T05:34:09.807Z,20.45
2022-12-05T05:36:36.930Z,21.08
2022-12-05T05:39:05.445Z,18.70
2022-12-05T05:41:34.132Z,17.50
2022-12-05T05:44:01.538Z,19.38
2022-12-05T05:46:30.757Z,18.08
2022-12-05T05:48:57.590Z,18.90
2022-12-05T05:51:29.246Z,17.17
2022-12-05T05:53:57.210Z,17.30
2022-12-05T05:56:23.655Z,18.88
2022-12-05T05:59:01.611Z,20.90
2022-12-05T06:01:29.496Z,16.83
2022-12-05T06:03:56.361Z,19.42
2022-12-05T06:06:23.793Z,18.35
2022-12-05T06:08:50.543Z,18.83
2022-12-05T06:11:26.800Z,18.77
2022-12-05T06:13:55.982Z,18.00
2022-12-05T06:16:22.684Z,18.67
2022-12-05T06:18:49.928Z,19.48
2022-12-05T06:21:17.697Z,16.73
2022-12-05T06:23:44.522Z,16.75
2022-12-05T06:26:13.411Z,16.20
2022-12-05T06:28:40.439Z,19.67
2022-12-05T06:31:11.157Z,17.00
2022-12-05T06:33:37.835Z,15.82
2022-12-05T06:36:06.360Z,17.38
2022-12-05T06:38:32.864Z,18.48
2022-12-05T06:40:59.411Z,18.38
2022-12-05T06:43:25.756Z,16.95
2022-12-05T06:45:52.264Z,19.98
2022-12-05T06:48:18.761Z,16.98
2022-12-05T06:50:52.890Z,17.77
2022-12-05T06:53:20.131Z,18.40
2022-12-05T06:56:00.840Z,17.58
2022-12-05T06:58:28.220Z,17.73
2022-12-05T07:01:13.901Z,17.20
2022-12-05T07:03:40.725Z,16.67
2022-12-05T07:06:08.425Z,17.17
2022-12-05T07:08:35.191Z,16.20
2022-12-05T07:11:02.725Z,17.25
2022-12-05T07:13:29.325Z,18.35
2022-12-05T07:15:55.766Z,17.77
2022-12-05T07:18:22.985Z,16.73
2022-12-05T07:21:15.282Z,16.90
2022-12-05T07:23:43.754Z,17.38
2022-12-05T07:26:13.438Z,24.20
2022-12-05T07:31:09.769Z,23.80
2022-12-05T07:33:37.136Z,22.65
2022-12-05T07:36:09.881Z,18.45
2022-12-05T07:38:37.218Z,18.23
2022-12-05T07:41:13.316Z,19.70
2022-12-05T07:43:41.271Z,15.32
2022-12-05T07:46:13.586Z,20.27
2022-12-05T07:48:40.541Z,18.92
2022-12-05T07:53:55.918Z,39.03
2022-12-05T07:56:23.037Z,31.05
2022-12-05T07:58:50.369Z,46.03
2022-12-05T08:01:22.136Z,45.30
2022-12-05T08:03:49.505Z,50.40
2022-12-05T08:06:21.315Z,55.85
2022-12-05T08:08:51.302Z,50.15
2022-12-05T08:11:23.931Z,45.10
2022-12-05T08:13:50.612Z,44.53
2022-12-05T08:16:22.537Z,42.75
2022-12-05T08:18:49.045Z,71.82
2022-12-05T08:21:18.099Z,60.42
2022-12-05T08:23:45.868Z,45.08
2022-12-05T08:26:18.304Z,44.15
2022-12-05T08:28:45.260Z,43.88
2022-12-05T08:31:17.819Z,47.50
2022-12-05T08:33:44.788Z,44.08
2022-12-05T08:36:13.813Z,45.10
2022-12-05T08:38:40.272Z,46.13
2022-12-05T08:41:09.253Z,47.20
2022-12-05T08:43:36.056Z,44.10
2022-12-05T08:46:02.975Z,46.45
2022-12-05T08:48:30.940Z,52.88
2022-12-05T08:50:58.162Z,42.90
2022-12-05T08:53:24.933Z,49.08
2022-12-05T08:55:51.324Z,46.20
2022-12-05T08:58:17.688Z,39.42
2022-12-05T09:00:44.049Z,39.67
2022-12-05T09:03:12.012Z,44.08
2022-12-05T09:05:38.627Z,42.40
2022-12-05T09:08:05.256Z,43.63
2022-12-05T09:10:31.837Z,93.60
2022-12-05T09:12:58.435Z,132.43
2022-12-05T09:15:24.941Z,71.63
2022-12-05T09:17:51.392Z,50.13
2022-12-05T09:20:18.275Z,70.38
2022-12-05T09:22:44.834Z,55.58
2022-12-05T09:25:11.218Z,47.33
2022-12-05T09:27:37.620Z,47.45
2022-12-05T09:30:05.665Z,45.55
2022-12-05T09:32:32.086Z,44.53
2022-12-05T09:34:58.622Z,45.70
2022-12-05T09:37:40.524Z,44.10
2022-12-05T09:40:08.081Z,43.85
2022-12-05T09:42:55.406Z,40.05
2022-12-05T09:45:57.761Z,42.17
2022-12-05T09:48:24.516Z,47.28
2022-12-05T09:51:00.300Z,47.67
2022-12-05T09:53:37.509Z,47.88
2022-12-05T09:56:12.381Z,54.97
2022-12-05T09:58:42.816Z,45.75
2022-12-05T10:01:25.774Z,43.40
2022-12-05T10:04:26.476Z,32.45
2022-12-05T10:07:34.777Z,28.63
2022-12-05T10:10:24.831Z,23.48
2022-12-05T10:13:13.168Z,22.23
2022-12-05T10:16:03.211Z,22.77
2022-12-05T10:18:42.916Z,20.60
2022-12-05T10:21:09.216Z,49.10
2022-12-05T10:23:57.487Z,36.80
2022-12-05T10:26:28.813Z,21.52
2022-12-05T10:29:22.833Z,22.17
2022-12-05T10:31:51.476Z,19.55
2022-12-05T10:34:34.193Z,20.63
2022-12-05T10:37:15.340Z,22.48
2022-12-05T10:39:42.527Z,19.75
2022-12-05T10:42:28.122Z,21.58
2022-12-05T10:45:02.805Z,20.17
2022-12-05T10:47:30.432Z,20.60
2022-12-05T10:49:59.929Z,20.63
2022-12-05T10:52:26.392Z,22.95
2022-12-05T10:55:03.567Z,21.85
2022-12-05T10:57:30.493Z,20.45
2022-12-05T10:59:57.903Z,20.50
2022-12-05T11:02:28.169Z,20.23
2022-12-05T11:07:35.164Z,20.20
2022-12-05T11:10:21.151Z,20.75
2022-12-05T11:12:51.812Z,20.95
2022-12-05T11:15:19.501Z,19.08
2022-12-05T11:17:46.353Z,21.48
2022-12-05T11:20:34.762Z,19.60
2022-12-05T11:23:17.310Z,19.52
2022-12-05T11:25:43.741Z,21.10
2022-12-05T11:28:16.121Z,22.60
2022-12-05T11:30:57.660Z,33.40
2022-12-05T11:33:25.568Z,36.05
2022-12-05T11:35:54.250Z,16.95
2022-12-05T11:38:25.052Z,19.17
2022-12-05T11:41:00.536Z,20.77
2022-12-05T11:43:41.855Z,17.95
2022-12-05T11:46:27.293Z,18.13
2022-12-05T11:49:11.242Z,16.92
2022-12-05T11:51:49.127Z,16.85
2022-12-05T11:54:56.837Z,16.23
2022-12-05T11:57:14.994Z,15.23
2022-12-05T12:00:01.719Z,14.65
2022-12-05T12:02:58.114Z,13.77
2022-12-05T12:05:57.400Z,13.32
2022-12-05T12:08:38.982Z,15.93
2022-12-05T12:11:08.406Z,24.25
2022-12-05T12:13:49.947Z,20.60
2022-12-05T12:16:40.925Z,18.52
2022-12-05T12:19:25.096Z,13.38
2022-12-05T12:22:10.354Z,12.68
2022-12-05T12:24:50.092Z,13.95
2022-12-05T12:27:46.293Z,13.05
2022-12-05T12:30:20.351Z,12.98
2022-12-05T12:33:11.303Z,12.82
2022-12-05T12:36:04.045Z,12.88
2022-12-05T12:38:45.710Z,11.55
2022-12-05T12:41:33.111Z,31.27
2022-12-05T12:44:01.707Z,49.97
2022-12-05T12:46:52.676Z,55.20
2022-12-05T12:49:49.988Z,18.38
2022-12-05T12:52:26.692Z,13.57
2022-12-05T12:55:03.991Z,12.95
2022-12-05T12:57:54.864Z,13.00
2022-12-05T13:00:54.642Z,14.65
2022-12-05T13:03:51.341Z,14.90
2022-12-05T13:06:49.995Z,16.27
2022-12-05T13:09:32.124Z,13.32
2022-12-05T13:12:05.684Z,15.90
2022-12-05T13:14:34.663Z,13.05
2022-12-05T13:17:02.785Z,13.30
2022-12-05T13:19:45.164Z,13.68
2022-12-05T13:22:13.455Z,14.48
2022-12-05T13:24:40.052Z,14.40
2022-12-05T13:27:15.306Z,16.48
2022-12-05T13:29:50.792Z,16.20
2022-12-05T13:32:38.464Z,15.73
2022-12-05T13:35:07.754Z,16.42
2022-12-05T13:37:53.920Z,14.63
2022-12-05T13:40:50.080Z,13.90
2022-12-05T13:43:20.185Z,15.23
2022-12-05T13:46:04.295Z,12.98
2022-12-05T13:48:35.012Z,15.02
2022-12-05T13:51:20.997Z,15.00
2022-12-05T13:53:50.953Z,13.23
2022-12-05T13:56:17.247Z,14.15
2022-12-05T13:58:51.032Z,14.63
2022-12-05T14:01:26.837Z,14.77
2022-12-05T14:06:39.403Z,13.93
2022-12-05T14:09:11.814Z,11.27
2022-12-05T14:11:38.287Z,13.10
2022-12-05T14:14:05.283Z,12.45
2022-12-05T14:16:31.764Z,13.73
2022-12-05T14:19:33.843Z,14.43
2022-12-05T14:22:17.558Z,13.48
2022-12-05T14:25:06.115Z,12.23
2022-12-05T14:27:53.227Z,12.45
2022-12-05T14:30:25.423Z,11.27
2022-12-05T14:32:53.945Z,11.25
2022-12-05T14:35:42.162Z,13.90
2022-12-05T14:40:48.012Z,14.40
2022-12-05T14:43:27.210Z,12.02
2022-12-05T14:45:53.595Z,13.52
2022-12-05T14:48:19.956Z,13.00
2022-12-05T14:50:48.918Z,12.48
2022-12-05T14:53:15.269Z,13.85
2022-12-05T14:55:45.892Z,11.98
2022-12-05T14:58:32.145Z,14.88
2022-12-05T15:01:03.343Z,13.77
2022-12-05T15:03:36.665Z,25.45
2022-12-05T15:06:06.648Z,15.82
2022-12-05T15:09:14.518Z,12.05
2022-12-05T15:11:43.472Z,15.70
2022-12-05T15:14:21.207Z,20.85
2022-12-05T15:16:50.361Z,16.95
2022-12-05T15:19:30.752Z,16.45
2022-12-05T15:22:01.458Z,18.60
2022-12-05T15:24:27.868Z,15.10
2022-12-05T15:26:59.310Z,17.85
2022-12-05T15:29:28.095Z,15.55
2022-12-05T15:32:03.272Z,16.52
2022-12-05T15:34:36.841Z,14.77
2022-12-05T15:37:22.813Z,19.70
2022-12-05T15:39:59.942Z,16.33
2022-12-05T15:42:31.660Z,14.95
2022-12-05T15:45:16.025Z,16.55
2022-12-05T15:47:42.365Z,15.35
2022-12-05T15:50:44.219Z,16.52
2022-12-05T15:53:15.449Z,16.33
2022-12-05T15:55:55.584Z,17.98
2022-12-05T15:58:39.658Z,17.90
2022-12-05T16:01:16.376Z,20.27
2022-12-05T16:04:14.632Z,18.35
2022-12-05T16:06:54.785Z,21.25
2022-12-05T16:09:28.397Z,18.42
2022-12-05T16:11:57.937Z,18.95
2022-12-05T16:14:58.274Z,85.07
2022-12-05T16:17:16.444Z,22.67
2022-12-05T16:19:43.643Z,18.33
2022-12-05T16:22:21.254Z,16.98
2022-12-05T16:24:55.002Z,18.73
2022-12-05T16:27:25.879Z,21.65
2022-12-05T16:30:10.974Z,27.00
2022-12-05T16:32:38.403Z,22.90
2022-12-05T16:35:30.656Z,24.67
2022-12-05T16:38:29.683Z,22.95
2022-12-05T16:40:59.477Z,20.40
2022-12-05T16:43:43.225Z,20.70
2022-12-05T16:46:15.345Z,26.70
2022-12-05T16:48:47.589Z,20.40
2022-12-05T16:51:14.153Z,19.05
2022-12-05T16:53:43.067Z,18.73
2022-12-05T16:56:18.670Z,20.48
2022-12-05T16:58:45.180Z,19.35
2022-12-05T17:01:17.939Z,20.27
2022-12-05T17:03:45.199Z,22.90
2022-12-05T17:06:12.454Z,24.80
2022-12-05T17:08:44.677Z,25.77
2022-12-05T17:11:17.223Z,22.55
2022-12-05T17:13:45.165Z,21.65
2022-12-05T17:16:12.075Z,22.15
2022-12-05T17:18:38.562Z,18.90
2022-12-05T17:21:09.481Z,17.55
2022-12-05T17:23:35.843Z,18.45
2022-12-05T17:26:02.328Z,17.95
2022-12-05T17:28:28.772Z,17.15
2022-12-05T17:30:55.196Z,17.75
2022-12-05T17:33:22.313Z,19.73
2022-12-05T17:35:48.722Z,16.15
2022-12-05T17:38:15.147Z,19.80
2022-12-05T17:40:41.544Z,15.68
2022-12-05T17:43:13.624Z,17.48
2022-12-05T17:45:40.038Z,17.92
2022-12-05T17:48:09.792Z,19.67
2022-12-05T17:53:07.215Z,18.95
2022-12-05T17:55:33.933Z,16.55
2022-12-05T17:58:00.340Z,20.67
2022-12-05T18:00:26.948Z,17.05
2022-12-05T18:02:53.431Z,15.43
2022-12-05T18:05:27.646Z,19.92
2022-12-05T18:07:54.076Z,15.70
2022-12-05T18:10:23.358Z,15.48
2022-12-05T18:12:50.833Z,15.02
2022-12-05T18:15:17.598Z,15.50
2022-12-05T18:17:44.293Z,15.32
2022-12-05T18:20:13.763Z,16.85
2022-12-05T18:22:40.543Z,16.50
2022-12-05T18:25:07.465Z,17.60
2022-12-05T18:27:34.900Z,15.98
2022-12-05T18:30:02.105Z,17.33
2022-12-05T18:32:28.535Z,17.08
2022-12-05T18:34:55.075Z,30.25
2022-12-05T18:37:22.308Z,66.18
2022-12-05T18:39:48.732Z,15.88
2022-12-05T18:42:15.611Z,21.10
2022-12-05T18:44:42.240Z,37.88
2022-12-05T18:47:08.704Z,23.25
2022-12-05T18:49:35.129Z,21.73
2022-12-05T18:52:01.591Z,20.45
2022-12-05T18:54:28.015Z,15.45
2022-12-05T18:56:54.439Z,17.48
2022-12-05T18:59:22.039Z,16.08
2022-12-05T19:01:49.617Z,19.00
2022-12-05T19:04:18.958Z,17.92
2022-12-05T19:06:51.386Z,18.02
2022-12-05T19:09:19.786Z,18.60
2022-12-05T19:11:48.393Z,17.52
2022-12-05T19:14:16.672Z,17.52
2022-12-05T19:16:43.206Z,15.85
2022-12-05T19:19:13.151Z,19.73
2022-12-05T19:21:39.582Z,16.45
2022-12-05T19:24:07.058Z,18.95
2022-12-05T19:26:34.333Z,16.10
2022-12-05T19:29:00.975Z,16.70
2022-12-05T19:31:29.106Z,14.13
2022-12-05T19:34:00.469Z,12.18
2022-12-05T19:36:32.824Z,15.25
2022-12-05T19:38:59.460Z,12.15
2022-12-05T19:41:28.192Z,14.55
2022-12-05T19:43:58.649Z,14.68
2022-12-05T19:46:27.947Z,14.05
2022-12-05T19:48:56.688Z,15.07
2022-12-05T19:51:23.889Z,14.15
2022-12-05T19:53:50.998Z,20.10
2022-12-05T19:56:22.668Z,41.45
2022-12-05T19:58:50.233Z,35.25
2022-12-05T20:01:25.288Z,15.82
2022-12-05T20:03:55.023Z,14.18
2022-12-05T20:06:22.060Z,16.05
2022-12-05T20:08:51.189Z,15.90
2022-12-05T20:11:20.675Z,14.98
2022-12-05T20:13:48.385Z,13.32
2022-12-05T20:16:16.839Z,13.43
2022-12-05T20:18:43.321Z,15.70
2022-12-05T20:21:12.374Z,15.27
2022-12-05T20:23:38.880Z,16.67
2022-12-05T20:26:17.018Z,13.68
2022-12-05T20:28:44.375Z,14.45
2022-12-05T20:31:16.591Z,15.85
2022-12-05T20:33:43.659Z,15.60
2022-12-05T20:36:16.956Z,15.20
2022-12-05T20:38:44.126Z,17.13
2022-12-05T20:41:15.387Z,16.38
2022-12-05T20:43:43.179Z,17.38
2022-12-05T20:46:17.212Z,17.70
2022-12-05T20:48:43.945Z,17.52
2022-12-05T20:51:16.014Z,20.55
2022-12-05T20:53:43.900Z,23.08
2022-12-05T20:56:16.092Z,17.83
2022-12-05T20:58:47.072Z,18.13
2022-12-05T21:01:15.274Z,18.52
2022-12-05T21:03:45.319Z,17.77
2022-12-05T21:06:18.332Z,17.10
2022-12-05T21:08:45.228Z,18.92
2022-12-05T21:11:12.616Z,18.42
2022-12-05T21:13:39.379Z,18.58
2022-12-05T21:16:08.819Z,16.92
2022-12-05T21:18:36.579Z,14.85
2022-12-05T21:21:05.514Z,13.20
2022-12-05T21:23:32.104Z,8.40
2022-12-05T21:26:06.996Z,8.77
2022-12-05T21:28:34.781Z,8.82
2022-12-05T21:31:13.462Z,10.10
2022-12-05T21:33:47.669Z,10.90
2022-12-05T21:36:14.553Z,11.48
2022-12-05T21:38:40.944Z,7.30
2022-12-05T21:41:07.673Z,7.93
2022-12-05T21:43:35.992Z,10.15
2022-12-05T21:46:02.799Z,8.40
2022-12-05T21:48:29.261Z,7.05
2022-12-05T21:50:56.270Z,6.22
2022-12-05T21:53:22.885Z,7.43
2022-12-05T21:55:59.149Z,8.30
2022-12-05T21:58:25.503Z,10.60
2022-12-05T22:00:51.853Z,6.80
2022-12-05T22:03:18.221Z,8.20
2022-12-05T22:05:44.713Z,6.88
2022-12-05T22:08:11.445Z,33.40
2022-12-05T22:10:37.971Z,7.18
2022-12-05T22:13:04.978Z,7.53
2022-12-05T22:15:31.493Z,10.98
2022-12-05T22:17:57.908Z,7.72
2022-12-05T22:20:24.502Z,7.68
2022-12-05T22:22:50.893Z,7.22
2022-12-05T22:25:17.243Z,7.93
2022-12-05T22:27:43.628Z,9.48
2022-12-05T22:30:10.289Z,6.57
2022-12-05T22:32:36.711Z,7.57
2022-12-05T22:35:04.234Z,7.35
2022-12-05T22:37:31.081Z,8.13
2022-12-05T22:39:57.873Z,8.18
2022-12-05T22:42:26.783Z,7.93
2022-12-05T22:44:53.391Z,8.20
2022-12-05T22:47:19.753Z,9.07
2022-12-05T22:49:46.113Z,8.55
2022-12-05T22:52:12.452Z,13.57
2022-12-05T22:54:39.138Z,9.63
2022-12-05T22:57:05.506Z,7.13
2022-12-05T22:59:31.904Z,8.23
2022-12-05T23:01:58.335Z,7.47
2022-12-05T23:04:24.944Z,7.82
2022-12-05T23:06:51.449Z,7.75
2022-12-05T23:09:17.975Z,8.00
2022-12-05T23:11:44.340Z,7.55
2022-12-05T23:14:13.517Z,9.95
2022-12-05T23:16:40.145Z,8.57
2022-12-05T23:19:08.173Z,7.32
2022-12-05T23:21:37.411Z,8.55
2022-12-05T23:24:06.608Z,10.73
2022-12-05T23:26:39.932Z,11.00
2022-12-05T23:29:06.573Z,6.72
2022-12-05T23:31:33.939Z,10.43
2022-12-05T23:34:03.652Z,8.25
2022-12-05T23:36:31.697Z,8.85
2022-12-05T23:38:58.132Z,8.20
2022-12-05T23:41:25.917Z,9.45
2022-12-05T23:43:53.471Z,7.97
2022-12-05T23:46:24.094Z,7.25
2022-12-05T23:48:50.987Z,8.18
2022-12-05T23:51:24.426Z,7.07
2022-12-05T23:53:56.913Z,10.48
2022-12-05T23:56:26.065Z,9.48
2022-12-05T23:58:54.192Z,10.80
